sensor_id;sensor_type;location;lat;lon;timestamp;P1;durP1;ratioP1;P2;durP2;ratioP2
5674;SDS011;2860;54.284;10.158;2023-06-26T00:02:11;4.50;;;4.30;;
5674;SDS011;2860;54.284;10.158;2023-06-26T00:04:36;5.97;;;3.90;;
5674;SDS011;2860;54.284;10.158;2023-06-26T00:07:02;3.65;;;3.55;;
5674;SDS011;2860;54.284;10.158;2023-06-26T00:09:31;4.22;;;3.92;;
5674;SDS011;2860;54.284;10.158;2023-06-26T00:11:57;4.60;;;4.30;;
5674;SDS011;2860;54.284;10.158;2023-06-26T00:14:24;4.00;;;3.90;;
5674;SDS011;2860;54.284;10.158;2023-06-26T00:16:51;4.03;;;3.92;;
5674;SDS011;2860;54.284;10.158;2023-06-26T00:19:16;4.30;;;4.18;;
5674;SDS011;2860;54.284;10.158;2023-06-26T00:21:43;3.78;;;3.67;;
5674;SDS011;2860;54.284;10.158;2023-06-26T00:24:11;4.00;;;3.90;;
5674;SDS011;2860;54.284;10.158;2023-06-26T00:26:37;3.78;;;3.67;;
5674;SDS011;2860;54.284;10.158;2023-06-26T00:29:03;3.53;;;3.42;;
5674;SDS011;2860;54.284;10.158;2023-06-26T00:31:28;4.15;;;4.05;;
5674;SDS011;2860;54.284;10.158;2023-06-26T00:33:54;4.35;;;4.15;;
5674;SDS011;2860;54.284;10.158;2023-06-26T00:36:19;4.03;;;3.83;;
5674;SDS011;2860;54.284;10.158;2023-06-26T00:38:45;3.95;;;3.75;;
5674;SDS011;2860;54.284;10.158;2023-06-26T00:41:10;4.20;;;4.00;;
5674;SDS011;2860;54.284;10.158;2023-06-26T00:43:37;4.50;;;4.20;;
5674;SDS011;2860;54.284;10.158;2023-06-26T00:46:03;4.30;;;4.10;;
5674;SDS011;2860;54.284;10.158;2023-06-26T00:48:29;4.40;;;4.30;;
5674;SDS011;2860;54.284;10.158;2023-06-26T00:50:55;4.32;;;4.22;;
5674;SDS011;2860;54.284;10.158;2023-06-26T00:53:21;4.10;;;3.90;;
5674;SDS011;2860;54.284;10.158;2023-06-26T00:55:47;4.88;;;4.68;;
5674;SDS011;2860;54.284;10.158;2023-06-26T00:58:13;4.82;;;4.63;;
5674;SDS011;2860;54.284;10.158;2023-06-26T01:00:38;5.05;;;4.60;;
5674;SDS011;2860;54.284;10.158;2023-06-26T01:03:04;4.00;;;3.90;;
5674;SDS011;2860;54.284;10.158;2023-06-26T01:05:30;4.75;;;4.55;;
5674;SDS011;2860;54.284;10.158;2023-06-26T01:07:56;5.18;;;4.78;;
5674;SDS011;2860;54.284;10.158;2023-06-26T01:10:23;4.70;;;4.55;;
5674;SDS011;2860;54.284;10.158;2023-06-26T01:12:49;4.82;;;4.63;;
5674;SDS011;2860;54.284;10.158;2023-06-26T01:15:15;4.97;;;4.78;;
5674;SDS011;2860;54.284;10.158;2023-06-26T01:17:40;5.28;;;5.10;;
5674;SDS011;2860;54.284;10.158;2023-06-26T01:20:10;4.13;;;3.95;;
5674;SDS011;2860;54.284;10.158;2023-06-26T01:27:52;5.00;;;4.80;;
5674;SDS011;2860;54.284;10.158;2023-06-26T01:30:19;5.78;;;5.47;;
5674;SDS011;2860;54.284;10.158;2023-06-26T01:32:46;5.55;;;5.35;;
5674;SDS011;2860;54.284;10.158;2023-06-26T01:35:12;5.05;;;4.95;;
5674;SDS011;2860;54.284;10.158;2023-06-26T01:37:39;5.88;;;5.63;;
5674;SDS011;2860;54.284;10.158;2023-06-26T01:40:05;5.25;;;5.05;;
5674;SDS011;2860;54.284;10.158;2023-06-26T01:42:31;5.65;;;5.35;;
5674;SDS011;2860;54.284;10.158;2023-06-26T01:44:57;6.20;;;5.72;;
5674;SDS011;2860;54.284;10.158;2023-06-26T01:47:29;6.40;;;6.07;;
5674;SDS011;2860;54.284;10.158;2023-06-26T01:52:59;6.28;;;5.97;;
5674;SDS011;2860;54.284;10.158;2023-06-26T01:55:38;6.97;;;6.57;;
5674;SDS011;2860;54.284;10.158;2023-06-26T01:58:08;7.93;;;7.13;;
5674;SDS011;2860;54.284;10.158;2023-06-26T02:00:34;8.07;;;7.40;;
5674;SDS011;2860;54.284;10.158;2023-06-26T02:03:01;7.28;;;6.88;;
5674;SDS011;2860;54.284;10.158;2023-06-26T02:05:29;7.68;;;7.25;;
5674;SDS011;2860;54.284;10.158;2023-06-26T02:07:55;7.72;;;7.32;;
5674;SDS011;2860;54.284;10.158;2023-06-26T02:10:21;7.05;;;6.70;;
5674;SDS011;2860;54.284;10.158;2023-06-26T02:12:47;8.38;;;7.78;;
5674;SDS011;2860;54.284;10.158;2023-06-26T02:15:12;8.32;;;7.82;;
5674;SDS011;2860;54.284;10.158;2023-06-26T02:17:38;8.27;;;7.68;;
5674;SDS011;2860;54.284;10.158;2023-06-26T02:20:03;7.88;;;7.38;;
5674;SDS011;2860;54.284;10.158;2023-06-26T02:22:30;7.78;;;7.18;;
5674;SDS011;2860;54.284;10.158;2023-06-26T02:24:56;8.20;;;7.75;;
5674;SDS011;2860;54.284;10.158;2023-06-26T02:27:22;7.15;;;6.85;;
5674;SDS011;2860;54.284;10.158;2023-06-26T02:29:47;8.85;;;8.20;;
5674;SDS011;2860;54.284;10.158;2023-06-26T02:32:13;9.75;;;9.15;;
5674;SDS011;2860;54.284;10.158;2023-06-26T02:34:38;9.77;;;9.18;;
5674;SDS011;2860;54.284;10.158;2023-06-26T02:37:04;9.30;;;8.70;;
5674;SDS011;2860;54.284;10.158;2023-06-26T02:39:32;9.43;;;8.88;;
5674;SDS011;2860;54.284;10.158;2023-06-26T02:41:59;11.88;;;8.82;;
5674;SDS011;2860;54.284;10.158;2023-06-26T02:44:24;7.95;;;7.45;;
5674;SDS011;2860;54.284;10.158;2023-06-26T02:46:50;9.82;;;9.02;;
5674;SDS011;2860;54.284;10.158;2023-06-26T02:49:15;9.77;;;9.18;;
5674;SDS011;2860;54.284;10.158;2023-06-26T02:51:41;9.15;;;8.57;;
5674;SDS011;2860;54.284;10.158;2023-06-26T02:54:06;10.30;;;9.60;;
5674;SDS011;2860;54.284;10.158;2023-06-26T02:56:32;10.88;;;10.07;;
5674;SDS011;2860;54.284;10.158;2023-06-26T02:58:57;9.75;;;9.05;;
5674;SDS011;2860;54.284;10.158;2023-06-26T03:01:23;11.23;;;10.23;;
5674;SDS011;2860;54.284;10.158;2023-06-26T03:03:49;9.82;;;9.27;;
5674;SDS011;2860;54.284;10.158;2023-06-26T03:06:15;10.38;;;9.60;;
5674;SDS011;2860;54.284;10.158;2023-06-26T03:08:41;10.30;;;9.55;;
5674;SDS011;2860;54.284;10.158;2023-06-26T03:11:07;10.10;;;9.27;;
5674;SDS011;2860;54.284;10.158;2023-06-26T03:13:33;11.77;;;10.88;;
5674;SDS011;2860;54.284;10.158;2023-06-26T03:16:00;10.48;;;9.70;;
5674;SDS011;2860;54.284;10.158;2023-06-26T03:18:25;11.43;;;10.43;;
5674;SDS011;2860;54.284;10.158;2023-06-26T03:20:51;10.82;;;9.93;;
5674;SDS011;2860;54.284;10.158;2023-06-26T03:23:19;10.75;;;10.02;;
5674;SDS011;2860;54.284;10.158;2023-06-26T03:25:45;11.73;;;10.90;;
5674;SDS011;2860;54.284;10.158;2023-06-26T03:28:11;11.32;;;10.43;;
5674;SDS011;2860;54.284;10.158;2023-06-26T03:30:36;11.88;;;10.98;;
5674;SDS011;2860;54.284;10.158;2023-06-26T03:33:02;12.02;;;11.23;;
5674;SDS011;2860;54.284;10.158;2023-06-26T03:35:27;11.02;;;10.00;;
5674;SDS011;2860;54.284;10.158;2023-06-26T03:37:53;11.27;;;10.45;;
5674;SDS011;2860;54.284;10.158;2023-06-26T03:40:19;11.98;;;11.07;;
5674;SDS011;2860;54.284;10.158;2023-06-26T03:42:45;12.05;;;10.90;;
5674;SDS011;2860;54.284;10.158;2023-06-26T03:45:10;12.35;;;11.20;;
5674;SDS011;2860;54.284;10.158;2023-06-26T03:47:36;34.15;;;28.73;;
5674;SDS011;2860;54.284;10.158;2023-06-26T03:50:01;15.45;;;13.95;;
5674;SDS011;2860;54.284;10.158;2023-06-26T03:52:27;12.35;;;11.55;;
5674;SDS011;2860;54.284;10.158;2023-06-26T03:54:55;12.93;;;11.93;;
5674;SDS011;2860;54.284;10.158;2023-06-26T03:57:22;11.13;;;10.40;;
5674;SDS011;2860;54.284;10.158;2023-06-26T03:59:47;12.15;;;11.25;;
5674;SDS011;2860;54.284;10.158;2023-06-26T04:02:13;11.48;;;10.55;;
5674;SDS011;2860;54.284;10.158;2023-06-26T04:04:38;13.27;;;11.48;;
5674;SDS011;2860;54.284;10.158;2023-06-26T04:07:04;16.10;;;12.15;;
5674;SDS011;2860;54.284;10.158;2023-06-26T04:09:29;12.70;;;11.65;;
5674;SDS011;2860;54.284;10.158;2023-06-26T04:11:55;12.32;;;11.45;;
5674;SDS011;2860;54.284;10.158;2023-06-26T04:14:21;13.10;;;10.25;;
5674;SDS011;2860;54.284;10.158;2023-06-26T04:16:46;12.23;;;11.20;;
5674;SDS011;2860;54.284;10.158;2023-06-26T04:19:12;12.32;;;11.25;;
5674;SDS011;2860;54.284;10.158;2023-06-26T04:21:38;11.82;;;11.02;;
5674;SDS011;2860;54.284;10.158;2023-06-26T04:24:04;11.32;;;10.55;;
5674;SDS011;2860;54.284;10.158;2023-06-26T04:26:30;16.42;;;14.95;;
5674;SDS011;2860;54.284;10.158;2023-06-26T04:28:55;12.63;;;11.57;;
5674;SDS011;2860;54.284;10.158;2023-06-26T04:31:21;12.02;;;10.95;;
5674;SDS011;2860;54.284;10.158;2023-06-26T04:33:47;11.60;;;10.45;;
5674;SDS011;2860;54.284;10.158;2023-06-26T04:36:16;11.32;;;10.48;;
5674;SDS011;2860;54.284;10.158;2023-06-26T04:38:42;12.18;;;10.85;;
5674;SDS011;2860;54.284;10.158;2023-06-26T04:41:08;9.65;;;9.13;;
5674;SDS011;2860;54.284;10.158;2023-06-26T04:43:33;11.15;;;10.38;;
5674;SDS011;2860;54.284;10.158;2023-06-26T04:45:59;11.07;;;10.20;;
5674;SDS011;2860;54.284;10.158;2023-06-26T04:48:25;10.15;;;9.40;;
5674;SDS011;2860;54.284;10.158;2023-06-26T04:50:52;11.20;;;10.05;;
5674;SDS011;2860;54.284;10.158;2023-06-26T04:53:21;10.05;;;9.40;;
5674;SDS011;2860;54.284;10.158;2023-06-26T04:55:47;9.05;;;8.55;;
5674;SDS011;2860;54.284;10.158;2023-06-26T04:58:16;10.02;;;9.32;;
5674;SDS011;2860;54.284;10.158;2023-06-26T05:00:42;8.90;;;8.38;;
5674;SDS011;2860;54.284;10.158;2023-06-26T05:03:09;8.40;;;7.85;;
5674;SDS011;2860;54.284;10.158;2023-06-26T05:05:36;10.68;;;9.65;;
5674;SDS011;2860;54.284;10.158;2023-06-26T05:08:12;10.35;;;9.55;;
5674;SDS011;2860;54.284;10.158;2023-06-26T05:10:48;7.70;;;7.10;;
5674;SDS011;2860;54.284;10.158;2023-06-26T05:13:14;6.47;;;6.18;;
5674;SDS011;2860;54.284;10.158;2023-06-26T05:15:42;6.38;;;6.07;;
5674;SDS011;2860;54.284;10.158;2023-06-26T05:18:08;7.30;;;6.90;;
5674;SDS011;2860;54.284;10.158;2023-06-26T05:20:34;7.25;;;6.95;;
5674;SDS011;2860;54.284;10.158;2023-06-26T05:23:01;7.00;;;6.50;;
5674;SDS011;2860;54.284;10.158;2023-06-26T05:25:28;6.70;;;6.40;;
5674;SDS011;2860;54.284;10.158;2023-06-26T05:27:55;7.57;;;7.13;;
5674;SDS011;2860;54.284;10.158;2023-06-26T05:30:21;6.82;;;6.43;;
5674;SDS011;2860;54.284;10.158;2023-06-26T05:32:47;6.43;;;6.03;;
5674;SDS011;2860;54.284;10.158;2023-06-26T05:35:14;6.07;;;5.88;;
5674;SDS011;2860;54.284;10.158;2023-06-26T05:37:41;6.28;;;5.78;;
5674;SDS011;2860;54.284;10.158;2023-06-26T05:40:07;5.78;;;5.43;;
5674;SDS011;2860;54.284;10.158;2023-06-26T05:42:34;5.68;;;5.22;;
5674;SDS011;2860;54.284;10.158;2023-06-26T05:44:59;7.65;;;7.28;;
5674;SDS011;2860;54.284;10.158;2023-06-26T05:47:25;7.80;;;7.20;;
5674;SDS011;2860;54.284;10.158;2023-06-26T05:49:50;6.88;;;6.28;;
5674;SDS011;2860;54.284;10.158;2023-06-26T05:52:16;6.95;;;6.57;;
5674;SDS011;2860;54.284;10.158;2023-06-26T05:54:42;5.63;;;5.43;;
5674;SDS011;2860;54.284;10.158;2023-06-26T05:57:07;6.25;;;5.72;;
5674;SDS011;2860;54.284;10.158;2023-06-26T05:59:33;7.25;;;6.50;;
5674;SDS011;2860;54.284;10.158;2023-06-26T06:02:04;6.55;;;6.25;;
5674;SDS011;2860;54.284;10.158;2023-06-26T06:04:30;6.07;;;5.78;;
5674;SDS011;2860;54.284;10.158;2023-06-26T06:06:55;6.75;;;6.10;;
5674;SDS011;2860;54.284;10.158;2023-06-26T06:09:21;6.18;;;5.68;;
5674;SDS011;2860;54.284;10.158;2023-06-26T06:11:46;5.78;;;5.45;;
5674;SDS011;2860;54.284;10.158;2023-06-26T06:14:12;6.03;;;5.55;;
5674;SDS011;2860;54.284;10.158;2023-06-26T06:16:37;5.53;;;5.43;;
5674;SDS011;2860;54.284;10.158;2023-06-26T06:19:03;6.25;;;5.90;;
5674;SDS011;2860;54.284;10.158;2023-06-26T06:21:31;5.90;;;5.55;;
5674;SDS011;2860;54.284;10.158;2023-06-26T06:23:57;6.03;;;5.72;;
5674;SDS011;2860;54.284;10.158;2023-06-26T06:26:22;5.68;;;5.45;;
5674;SDS011;2860;54.284;10.158;2023-06-26T06:28:48;4.93;;;4.82;;
5674;SDS011;2860;54.284;10.158;2023-06-26T06:31:14;6.38;;;6.15;;
5674;SDS011;2860;54.284;10.158;2023-06-26T06:33:39;6.38;;;6.07;;
5674;SDS011;2860;54.284;10.158;2023-06-26T06:36:05;6.10;;;5.90;;
5674;SDS011;2860;54.284;10.158;2023-06-26T06:38:30;5.65;;;5.45;;
5674;SDS011;2860;54.284;10.158;2023-06-26T06:40:56;5.90;;;5.60;;
5674;SDS011;2860;54.284;10.158;2023-06-26T06:43:22;6.53;;;6.13;;
5674;SDS011;2860;54.284;10.158;2023-06-26T06:45:48;5.78;;;5.57;;
5674;SDS011;2860;54.284;10.158;2023-06-26T06:48:13;5.82;;;5.50;;
5674;SDS011;2860;54.284;10.158;2023-06-26T06:50:39;6.47;;;6.05;;
5674;SDS011;2860;54.284;10.158;2023-06-26T06:53:04;6.13;;;5.93;;
5674;SDS011;2860;54.284;10.158;2023-06-26T06:55:30;6.03;;;5.82;;
5674;SDS011;2860;54.284;10.158;2023-06-26T06:57:55;6.93;;;6.60;;
5674;SDS011;2860;54.284;10.158;2023-06-26T07:00:21;6.13;;;5.88;;
5674;SDS011;2860;54.284;10.158;2023-06-26T07:02:46;6.57;;;6.18;;
5674;SDS011;2860;54.284;10.158;2023-06-26T07:05:12;6.72;;;6.07;;
5674;SDS011;2860;54.284;10.158;2023-06-26T07:07:38;6.03;;;5.63;;
5674;SDS011;2860;54.284;10.158;2023-06-26T07:10:08;6.70;;;6.15;;
5674;SDS011;2860;54.284;10.158;2023-06-26T07:12:35;6.63;;;6.00;;
5674;SDS011;2860;54.284;10.158;2023-06-26T07:15:01;6.13;;;5.78;;
5674;SDS011;2860;54.284;10.158;2023-06-26T07:17:29;6.28;;;5.85;;
5674;SDS011;2860;54.284;10.158;2023-06-26T07:19:55;6.88;;;6.38;;
5674;SDS011;2860;54.284;10.158;2023-06-26T07:22:20;5.85;;;5.47;;
5674;SDS011;2860;54.284;10.158;2023-06-26T07:24:46;5.82;;;5.68;;
5674;SDS011;2860;54.284;10.158;2023-06-26T07:27:15;6.47;;;6.18;;
5674;SDS011;2860;54.284;10.158;2023-06-26T07:29:41;6.57;;;6.15;;
5674;SDS011;2860;54.284;10.158;2023-06-26T07:32:07;6.82;;;6.53;;
5674;SDS011;2860;54.284;10.158;2023-06-26T07:34:32;5.97;;;5.57;;
5674;SDS011;2860;54.284;10.158;2023-06-26T07:36:58;6.10;;;5.90;;
5674;SDS011;2860;54.284;10.158;2023-06-26T07:39:24;6.45;;;6.05;;
5674;SDS011;2860;54.284;10.158;2023-06-26T07:41:50;6.97;;;6.53;;
5674;SDS011;2860;54.284;10.158;2023-06-26T07:44:15;11.30;;;6.40;;
5674;SDS011;2860;54.284;10.158;2023-06-26T07:46:41;6.80;;;6.32;;
5674;SDS011;2860;54.284;10.158;2023-06-26T07:49:06;6.78;;;6.30;;
5674;SDS011;2860;54.284;10.158;2023-06-26T07:51:32;6.97;;;6.60;;
5674;SDS011;2860;54.284;10.158;2023-06-26T07:53:57;6.50;;;6.22;;
5674;SDS011;2860;54.284;10.158;2023-06-26T07:56:23;9.65;;;6.68;;
5674;SDS011;2860;54.284;10.158;2023-06-26T07:58:48;7.43;;;5.80;;
5674;SDS011;2860;54.284;10.158;2023-06-26T08:01:14;6.68;;;6.18;;
5674;SDS011;2860;54.284;10.158;2023-06-26T08:03:39;6.13;;;5.80;;
5674;SDS011;2860;54.284;10.158;2023-06-26T08:06:05;6.43;;;5.57;;
5674;SDS011;2860;54.284;10.158;2023-06-26T08:08:31;7.38;;;6.22;;
5674;SDS011;2860;54.284;10.158;2023-06-26T08:10:56;9.52;;;5.85;;
5674;SDS011;2860;54.284;10.158;2023-06-26T08:13:22;6.93;;;5.50;;
5674;SDS011;2860;54.284;10.158;2023-06-26T08:15:47;8.68;;;4.95;;
5674;SDS011;2860;54.284;10.158;2023-06-26T08:18:13;5.65;;;5.40;;
5674;SDS011;2860;54.284;10.158;2023-06-26T08:20:38;6.63;;;6.10;;
5674;SDS011;2860;54.284;10.158;2023-06-26T08:23:04;6.35;;;5.97;;
5674;SDS011;2860;54.284;10.158;2023-06-26T08:25:30;6.53;;;6.07;;
5674;SDS011;2860;54.284;10.158;2023-06-26T08:27:55;5.90;;;5.65;;
5674;SDS011;2860;54.284;10.158;2023-06-26T08:30:21;5.30;;;5.10;;
5674;SDS011;2860;54.284;10.158;2023-06-26T08:32:47;6.32;;;6.03;;
5674;SDS011;2860;54.284;10.158;2023-06-26T08:35:13;5.57;;;5.28;;
5674;SDS011;2860;54.284;10.158;2023-06-26T08:37:38;5.38;;;5.05;;
5674;SDS011;2860;54.284;10.158;2023-06-26T08:40:04;5.63;;;5.28;;
5674;SDS011;2860;54.284;10.158;2023-06-26T08:42:31;5.85;;;5.47;;
5674;SDS011;2860;54.284;10.158;2023-06-26T08:44:56;6.32;;;5.93;;
5674;SDS011;2860;54.284;10.158;2023-06-26T08:47:22;5.25;;;5.00;;
5674;SDS011;2860;54.284;10.158;2023-06-26T08:49:53;6.75;;;5.85;;
5674;SDS011;2860;54.284;10.158;2023-06-26T08:52:30;5.82;;;5.45;;
5674;SDS011;2860;54.284;10.158;2023-06-26T08:55:06;5.75;;;5.55;;
5674;SDS011;2860;54.284;10.158;2023-06-26T08:57:35;5.35;;;5.15;;
5674;SDS011;2860;54.284;10.158;2023-06-26T09:00:02;5.80;;;5.50;;
5674;SDS011;2860;54.284;10.158;2023-06-26T09:02:28;5.80;;;5.53;;
5674;SDS011;2860;54.284;10.158;2023-06-26T09:04:54;5.40;;;5.30;;
5674;SDS011;2860;54.284;10.158;2023-06-26T09:07:20;5.95;;;5.75;;
5674;SDS011;2860;54.284;10.158;2023-06-26T09:09:46;6.10;;;5.70;;
5674;SDS011;2860;54.284;10.158;2023-06-26T09:12:12;7.07;;;6.65;;
5674;SDS011;2860;54.284;10.158;2023-06-26T09:14:38;5.70;;;5.55;;
5674;SDS011;2860;54.284;10.158;2023-06-26T09:17:04;6.65;;;6.20;;
5674;SDS011;2860;54.284;10.158;2023-06-26T09:19:30;7.63;;;7.05;;
5674;SDS011;2860;54.284;10.158;2023-06-26T09:21:55;9.48;;;7.72;;
5674;SDS011;2860;54.284;10.158;2023-06-26T09:24:22;10.20;;;9.38;;
5674;SDS011;2860;54.284;10.158;2023-06-26T09:26:49;9.68;;;8.98;;
5674;SDS011;2860;54.284;10.158;2023-06-26T09:29:16;9.32;;;8.73;;
5674;SDS011;2860;54.284;10.158;2023-06-26T09:31:43;10.70;;;9.80;;
5674;SDS011;2860;54.284;10.158;2023-06-26T09:34:09;8.68;;;8.07;;
5674;SDS011;2860;54.284;10.158;2023-06-26T09:36:35;9.75;;;9.02;;
5674;SDS011;2860;54.284;10.158;2023-06-26T09:39:04;11.02;;;10.20;;
5674;SDS011;2860;54.284;10.158;2023-06-26T09:41:33;15.65;;;11.07;;
5674;SDS011;2860;54.284;10.158;2023-06-26T09:44:01;11.27;;;10.48;;
5674;SDS011;2860;54.284;10.158;2023-06-26T09:46:28;15.13;;;13.63;;
5674;SDS011;2860;54.284;10.158;2023-06-26T09:48:58;14.88;;;13.35;;
5674;SDS011;2860;54.284;10.158;2023-06-26T09:51:26;12.88;;;11.77;;
5674;SDS011;2860;54.284;10.158;2023-06-26T09:53:51;13.77;;;12.68;;
5674;SDS011;2860;54.284;10.158;2023-06-26T09:56:17;10.95;;;10.05;;
5674;SDS011;2860;54.284;10.158;2023-06-26T09:58:43;9.25;;;8.60;;
5674;SDS011;2860;54.284;10.158;2023-06-26T10:01:09;7.63;;;6.93;;
5674;SDS011;2860;54.284;10.158;2023-06-26T10:03:35;6.75;;;6.15;;
5674;SDS011;2860;54.284;10.158;2023-06-26T10:06:01;7.38;;;6.88;;
5674;SDS011;2860;54.284;10.158;2023-06-26T10:08:27;7.15;;;6.55;;
5674;SDS011;2860;54.284;10.158;2023-06-26T10:10:54;7.78;;;6.97;;
5674;SDS011;2860;54.284;10.158;2023-06-26T10:13:22;7.88;;;7.13;;
5674;SDS011;2860;54.284;10.158;2023-06-26T10:15:52;8.18;;;7.43;;
5674;SDS011;2860;54.284;10.158;2023-06-26T10:18:19;7.20;;;6.57;;
5674;SDS011;2860;54.284;10.158;2023-06-26T10:20:48;6.38;;;5.88;;
5674;SDS011;2860;54.284;10.158;2023-06-26T10:23:15;6.47;;;6.03;;
5674;SDS011;2860;54.284;10.158;2023-06-26T10:25:44;10.07;;;6.22;;
5674;SDS011;2860;54.284;10.158;2023-06-26T10:28:13;7.28;;;6.45;;
5674;SDS011;2860;54.284;10.158;2023-06-26T10:30:40;7.03;;;6.32;;
5674;SDS011;2860;54.284;10.158;2023-06-26T10:33:07;6.43;;;5.88;;
5674;SDS011;2860;54.284;10.158;2023-06-26T10:35:34;7.13;;;5.88;;
5674;SDS011;2860;54.284;10.158;2023-06-26T10:38:07;7.03;;;6.32;;
5674;SDS011;2860;54.284;10.158;2023-06-26T10:40:40;7.07;;;6.03;;
5674;SDS011;2860;54.284;10.158;2023-06-26T10:43:11;6.47;;;5.95;;
5674;SDS011;2860;54.284;10.158;2023-06-26T10:45:44;7.22;;;6.35;;
5674;SDS011;2860;54.284;10.158;2023-06-26T10:48:14;6.80;;;6.25;;
5674;SDS011;2860;54.284;10.158;2023-06-26T10:50:40;6.47;;;5.97;;
5674;SDS011;2860;54.284;10.158;2023-06-26T10:53:15;7.40;;;6.65;;
5674;SDS011;2860;54.284;10.158;2023-06-26T10:55:59;6.97;;;6.38;;
5674;SDS011;2860;54.284;10.158;2023-06-26T10:58:33;7.20;;;6.38;;
5674;SDS011;2860;54.284;10.158;2023-06-26T11:03:37;7.97;;;7.18;;
5674;SDS011;2860;54.284;10.158;2023-06-26T11:06:12;9.43;;;7.88;;
5674;SDS011;2860;54.284;10.158;2023-06-26T11:08:48;10.73;;;8.50;;
5674;SDS011;2860;54.284;10.158;2023-06-26T11:11:16;8.85;;;8.05;;
5674;SDS011;2860;54.284;10.158;2023-06-26T11:13:42;10.40;;;9.52;;
5674;SDS011;2860;54.284;10.158;2023-06-26T11:16:10;9.57;;;8.68;;
5674;SDS011;2860;54.284;10.158;2023-06-26T11:18:37;9.70;;;8.80;;
5674;SDS011;2860;54.284;10.158;2023-06-26T11:23:32;9.18;;;8.38;;
5674;SDS011;2860;54.284;10.158;2023-06-26T11:26:18;14.18;;;8.63;;
5674;SDS011;2860;54.284;10.158;2023-06-26T11:28:49;10.18;;;9.18;;
5674;SDS011;2860;54.284;10.158;2023-06-26T11:31:23;9.60;;;8.80;;
5674;SDS011;2860;54.284;10.158;2023-06-26T11:33:53;9.82;;;8.82;;
5674;SDS011;2860;54.284;10.158;2023-06-26T11:36:19;9.93;;;8.93;;
5674;SDS011;2860;54.284;10.158;2023-06-26T11:38:52;8.77;;;8.07;;
5674;SDS011;2860;54.284;10.158;2023-06-26T11:41:21;9.40;;;8.60;;
5674;SDS011;2860;54.284;10.158;2023-06-26T11:43:47;9.05;;;8.25;;
5674;SDS011;2860;54.284;10.158;2023-06-26T11:46:15;10.35;;;8.07;;
5674;SDS011;2860;54.284;10.158;2023-06-26T11:48:42;8.68;;;7.40;;
5674;SDS011;2860;54.284;10.158;2023-06-26T11:51:08;10.75;;;7.47;;
5674;SDS011;2860;54.284;10.158;2023-06-26T11:53:39;10.00;;;7.43;;
5674;SDS011;2860;54.284;10.158;2023-06-26T11:56:10;8.05;;;6.80;;
5674;SDS011;2860;54.284;10.158;2023-06-26T11:58:57;6.32;;;5.72;;
5674;SDS011;2860;54.284;10.158;2023-06-26T12:01:43;7.18;;;5.40;;
5674;SDS011;2860;54.284;10.158;2023-06-26T12:04:14;5.80;;;5.38;;
5674;SDS011;2860;54.284;10.158;2023-06-26T12:06:43;5.75;;;4.72;;
5674;SDS011;2860;54.284;10.158;2023-06-26T12:09:13;5.70;;;3.60;;
5674;SDS011;2860;54.284;10.158;2023-06-26T12:11:40;7.30;;;3.40;;
5674;SDS011;2860;54.284;10.158;2023-06-26T12:14:07;4.43;;;2.50;;
5674;SDS011;2860;54.284;10.158;2023-06-26T12:16:34;1.83;;;1.70;;
5674;SDS011;2860;54.284;10.158;2023-06-26T12:19:01;2.58;;;1.42;;
5674;SDS011;2860;54.284;10.158;2023-06-26T12:24:03;3.80;;;1.23;;
5674;SDS011;2860;54.284;10.158;2023-06-26T12:26:30;2.45;;;1.25;;
5674;SDS011;2860;54.284;10.158;2023-06-26T12:29:01;7.13;;;1.38;;
5674;SDS011;2860;54.284;10.158;2023-06-26T12:31:28;5.20;;;1.50;;
5674;SDS011;2860;54.284;10.158;2023-06-26T12:33:53;4.82;;;1.70;;
5674;SDS011;2860;54.284;10.158;2023-06-26T12:36:19;4.70;;;1.38;;
5674;SDS011;2860;54.284;10.158;2023-06-26T12:38:45;2.42;;;1.00;;
5674;SDS011;2860;54.284;10.158;2023-06-26T12:41:12;2.65;;;1.30;;
5674;SDS011;2860;54.284;10.158;2023-06-26T12:43:39;1.98;;;1.20;;
5674;SDS011;2860;54.284;10.158;2023-06-26T12:46:05;3.13;;;1.83;;
5674;SDS011;2860;54.284;10.158;2023-06-26T12:48:40;5.63;;;1.92;;
5674;SDS011;2860;54.284;10.158;2023-06-26T12:51:14;11.32;;;2.15;;
5674;SDS011;2860;54.284;10.158;2023-06-26T12:53:41;3.75;;;1.52;;
5674;SDS011;2860;54.284;10.158;2023-06-26T12:56:08;1.90;;;1.58;;
5674;SDS011;2860;54.284;10.158;2023-06-26T12:58:34;7.22;;;1.67;;
5674;SDS011;2860;54.284;10.158;2023-06-26T13:01:03;6.88;;;1.67;;
5674;SDS011;2860;54.284;10.158;2023-06-26T13:03:32;2.47;;;1.15;;
5674;SDS011;2860;54.284;10.158;2023-06-26T13:05:57;2.10;;;1.08;;
5674;SDS011;2860;54.284;10.158;2023-06-26T13:08:23;6.40;;;1.25;;
5674;SDS011;2860;54.284;10.158;2023-06-26T13:10:48;2.83;;;1.23;;
5674;SDS011;2860;54.284;10.158;2023-06-26T13:13:14;2.05;;;1.00;;
5674;SDS011;2860;54.284;10.158;2023-06-26T13:15:40;3.25;;;1.60;;
5674;SDS011;2860;54.284;10.158;2023-06-26T13:18:05;2.33;;;1.15;;
5674;SDS011;2860;54.284;10.158;2023-06-26T13:20:31;3.00;;;0.88;;
5674;SDS011;2860;54.284;10.158;2023-06-26T13:22:56;3.15;;;1.55;;
5674;SDS011;2860;54.284;10.158;2023-06-26T13:25:22;3.00;;;0.90;;
5674;SDS011;2860;54.284;10.158;2023-06-26T13:27:48;1.95;;;1.10;;
5674;SDS011;2860;54.284;10.158;2023-06-26T13:30:14;5.65;;;1.27;;
5674;SDS011;2860;54.284;10.158;2023-06-26T13:32:41;3.00;;;1.45;;
5674;SDS011;2860;54.284;10.158;2023-06-26T13:35:07;2.10;;;1.23;;
5674;SDS011;2860;54.284;10.158;2023-06-26T13:37:33;10.70;;;1.00;;
5674;SDS011;2860;54.284;10.158;2023-06-26T13:39:59;1.20;;;1.00;;
5674;SDS011;2860;54.284;10.158;2023-06-26T13:42:26;3.03;;;0.70;;
5674;SDS011;2860;54.284;10.158;2023-06-26T13:44:51;3.22;;;0.85;;
5674;SDS011;2860;54.284;10.158;2023-06-26T13:47:17;1.60;;;1.00;;
5674;SDS011;2860;54.284;10.158;2023-06-26T13:49:46;1.40;;;1.00;;
5674;SDS011;2860;54.284;10.158;2023-06-26T13:52:11;4.00;;;1.20;;
5674;SDS011;2860;54.284;10.158;2023-06-26T13:54:37;1.13;;;1.02;;
5674;SDS011;2860;54.284;10.158;2023-06-26T13:57:06;4.03;;;1.13;;
5674;SDS011;2860;54.284;10.158;2023-06-26T13:59:32;2.75;;;0.80;;
5674;SDS011;2860;54.284;10.158;2023-06-26T14:01:58;3.05;;;0.70;;
5674;SDS011;2860;54.284;10.158;2023-06-26T14:04:24;6.13;;;0.80;;
5674;SDS011;2860;54.284;10.158;2023-06-26T14:06:50;2.08;;;1.00;;
5674;SDS011;2860;54.284;10.158;2023-06-26T14:09:15;1.10;;;1.10;;
5674;SDS011;2860;54.284;10.158;2023-06-26T14:11:41;2.58;;;0.70;;
5674;SDS011;2860;54.284;10.158;2023-06-26T14:14:06;2.90;;;1.20;;
5674;SDS011;2860;54.284;10.158;2023-06-26T14:16:32;1.67;;;1.15;;
5674;SDS011;2860;54.284;10.158;2023-06-26T14:18:57;1.35;;;1.00;;
5674;SDS011;2860;54.284;10.158;2023-06-26T14:21:23;5.65;;;1.30;;
5674;SDS011;2860;54.284;10.158;2023-06-26T14:23:49;2.70;;;1.35;;
5674;SDS011;2860;54.284;10.158;2023-06-26T14:26:14;2.20;;;0.82;;
5674;SDS011;2860;54.284;10.158;2023-06-26T14:28:40;1.30;;;0.90;;
5674;SDS011;2860;54.284;10.158;2023-06-26T14:31:06;1.33;;;1.15;;
5674;SDS011;2860;54.284;10.158;2023-06-26T14:33:34;5.20;;;1.00;;
5674;SDS011;2860;54.284;10.158;2023-06-26T14:35:59;1.70;;;1.15;;
5674;SDS011;2860;54.284;10.158;2023-06-26T14:38:25;1.35;;;0.98;;
5674;SDS011;2860;54.284;10.158;2023-06-26T14:40:50;1.40;;;0.82;;
5674;SDS011;2860;54.284;10.158;2023-06-26T14:43:16;2.60;;;1.15;;
5674;SDS011;2860;54.284;10.158;2023-06-26T14:45:41;2.97;;;0.80;;
5674;SDS011;2860;54.284;10.158;2023-06-26T14:48:07;0.80;;;0.80;;
5674;SDS011;2860;54.284;10.158;2023-06-26T14:50:32;2.47;;;1.02;;
5674;SDS011;2860;54.284;10.158;2023-06-26T14:52:58;1.00;;;1.00;;
5674;SDS011;2860;54.284;10.158;2023-06-26T14:55:24;1.38;;;0.90;;
5674;SDS011;2860;54.284;10.158;2023-06-26T14:57:49;1.95;;;1.02;;
5674;SDS011;2860;54.284;10.158;2023-06-26T15:00:15;3.17;;;1.00;;
5674;SDS011;2860;54.284;10.158;2023-06-26T15:02:41;1.40;;;0.80;;
5674;SDS011;2860;54.284;10.158;2023-06-26T15:05:07;3.92;;;1.92;;
5674;SDS011;2860;54.284;10.158;2023-06-26T15:07:33;1.67;;;0.77;;
5674;SDS011;2860;54.284;10.158;2023-06-26T15:09:59;1.58;;;1.20;;
5674;SDS011;2860;54.284;10.158;2023-06-26T15:12:24;2.05;;;1.02;;